Time;durP1;ratioP1;P1;durP2;ratioP2;P2;SDS_P1;SDS_P2;PMS_P1;PMS_P2;Temp;Humidity;BMP_temperature;BMP_pressure;BME280_temperature;BME280_humidity;BME280_pressure;Samples;Min_cycle;Max_cycle;Signal;HPM_P1;HPM_P2
2023/04/08 00:00:36;;;;;;;4.40;1.38;;;;;;;;;;5080357;28;20094;-74
2023/04/08 00:03:03;;;;;;;1.60;1.33;;;;;;;;;;5082086;28;20400;-75
2023/04/08 00:05:29;;;;;;;1.75;1.35;;;;;;;;;;5101482;28;20020;-75
2023/04/08 00:07:55;;;;;;;1.50;1.40;;;;;;;;;;5094512;28;20049;-75
2023/04/08 00:10:21;;;;;;;1.45;1.00;;;;;;;;;;5099684;28;20308;-75
2023/04/08 00:12:47;;;;;;;2.75;1.90;;;;;;;;;;5096385;28;20062;-74
2023/04/08 00:15:13;;;;;;;1.30;1.10;;;;;;;;;;5077751;28;20024;-73
2023/04/08 00:17:41;;;;;;;0.82;0.82;;;;;;;;;;5100139;28;20147;-74
2023/04/08 00:20:07;;;;;;;3.53;1.50;;;;;;;;;;5080267;28;20319;-74
2023/04/08 00:22:33;;;;;;;1.98;1.63;;;;;;;;;;5098043;28;20073;-75
2023/04/08 00:24:59;;;;;;;1.20;0.95;;;;;;;;;;5099286;28;20020;-74
2023/04/08 00:27:25;;;;;;;1.13;1.02;;;;;;;;;;5100953;28;20022;-74
2023/04/08 00:29:51;;;;;;;3.45;1.65;;;;;;;;;;5099695;28;20036;-73
2023/04/08 00:32:17;;;;;;;1.33;1.08;;;;;;;;;;5106058;28;20077;-74
2023/04/08 00:34:43;;;;;;;1.40;1.25;;;;;;;;;;5118130;28;20024;-74
2023/04/08 00:37:10;;;;;;;1.42;1.08;;;;;;;;;;5119944;28;20047;-73
2023/04/08 00:39:36;;;;;;;1.40;1.25;;;;;;;;;;5120943;28;20106;-74
2023/04/08 00:42:02;;;;;;;2.38;0.88;;;;;;;;;;5120628;28;20016;-74
2023/04/08 00:44:29;;;;;;;2.65;1.30;;;;;;;;;;5119906;28;20118;-74
2023/04/08 00:46:55;;;;;;;1.52;1.10;;;;;;;;;;5101964;28;20511;-75
2023/04/08 00:49:24;;;;;;;1.30;0.90;;;;;;;;;;5101991;28;20066;-75
2023/04/08 00:51:50;;;;;;;1.40;1.23;;;;;;;;;;5100608;28;20028;-73
2023/04/08 00:54:16;;;;;;;1.02;1.02;;;;;;;;;;5116630;28;20026;-73
2023/04/08 00:56:43;;;;;;;1.60;1.50;;;;;;;;;;5101000;28;20368;-74
2023/04/08 00:59:09;;;;;;;1.20;1.10;;;;;;;;;;5101348;28;20023;-74
2023/04/08 01:01:54;;;;;;;1.35;1.00;;;;;;;;;;5100720;28;20073;-73
2023/04/08 01:04:32;;;;;;;1.25;1.15;;;;;;;;;;5098520;28;20023;-74
2023/04/08 01:07:17;;;;;;;1.33;1.10;;;;;;;;;;5116814;28;20066;-74
2023/04/08 01:09:46;;;;;;;2.67;1.17;;;;;;;;;;5116798;28;20131;-73
2023/04/08 01:12:13;;;;;;;3.50;1.40;;;;;;;;;;5116369;28;20045;-75
2023/04/08 01:14:41;;;;;;;1.20;1.10;;;;;;;;;;5114827;28;20024;-74
2023/04/08 01:17:08;;;;;;;1.23;0.80;;;;;;;;;;5118261;28;20120;-74
2023/04/08 01:19:37;;;;;;;1.60;1.05;;;;;;;;;;5119028;28;20027;-74
2023/04/08 01:22:21;;;;;;;2.77;2.13;;;;;;;;;;5100877;28;20321;-73
2023/04/08 01:24:48;;;;;;;1.13;1.02;;;;;;;;;;5114943;28;20273;-75
2023/04/08 01:27:15;;;;;;;1.63;1.13;;;;;;;;;;5117656;28;20296;-74
2023/04/08 01:29:41;;;;;;;1.60;1.10;;;;;;;;;;5099996;28;20315;-74
2023/04/08 01:32:08;;;;;;;1.00;1.00;;;;;;;;;;5101441;28;20027;-72
2023/04/08 01:34:34;;;;;;;2.45;1.10;;;;;;;;;;5099101;28;20586;-72
2023/04/08 01:37:01;;;;;;;1.00;0.80;;;;;;;;;;5103900;28;20023;-73
2023/04/08 01:39:28;;;;;;;1.10;1.00;;;;;;;;;;5122417;28;20055;-72
2023/04/08 01:41:56;;;;;;;1.20;1.20;;;;;;;;;;5106017;28;20028;-73
2023/04/08 01:44:22;;;;;;;1.42;0.90;;;;;;;;;;5122810;28;20015;-75
2023/04/08 01:46:48;;;;;;;2.13;1.63;;;;;;;;;;5104408;28;20024;-73
2023/04/08 01:49:15;;;;;;;1.33;1.23;;;;;;;;;;5122800;28;20220;-74
2023/04/08 01:51:42;;;;;;;1.27;0.93;;;;;;;;;;5120615;28;20024;-74
2023/04/08 01:54:08;;;;;;;0.90;0.90;;;;;;;;;;5122319;28;20019;-74
2023/04/08 01:56:36;;;;;;;1.92;1.20;;;;;;;;;;5123374;28;20020;-74
2023/04/08 01:59:04;;;;;;;0.75;0.75;;;;;;;;;;5112263;28;20498;-75
2023/04/08 02:01:31;;;;;;;6.53;2.35;;;;;;;;;;5093439;28;20016;-74
2023/04/08 02:03:58;;;;;;;1.15;1.15;;;;;;;;;;5094049;28;20089;-73
2023/04/08 02:06:26;;;;;;;1.65;1.20;;;;;;;;;;5116442;28;20026;-74
2023/04/08 02:08:53;;;;;;;1.98;1.10;;;;;;;;;;5112213;28;20030;-75
2023/04/08 02:11:20;;;;;;;3.20;1.65;;;;;;;;;;5095781;28;20379;-73
2023/04/08 02:13:46;;;;;;;1.15;0.90;;;;;;;;;;5094190;28;20020;-74
2023/04/08 02:16:23;;;;;;;1.08;1.00;;;;;;;;;;5095845;28;20026;-73
2023/04/08 02:18:56;;;;;;;2.50;1.35;;;;;;;;;;5113476;28;20053;-74
2023/04/08 02:21:26;;;;;;;0.98;0.80;;;;;;;;;;5116830;28;20098;-74
2023/04/08 02:23:53;;;;;;;1.20;1.10;;;;;;;;;;5119619;28;20087;-74
2023/04/08 02:26:20;;;;;;;1.95;1.73;;;;;;;;;;5102122;28;20051;-74
2023/04/08 02:28:48;;;;;;;2.00;1.90;;;;;;;;;;5118225;28;20115;-74
2023/04/08 02:31:16;;;;;;;0.80;0.80;;;;;;;;;;5112064;28;20044;-73
2023/04/08 02:33:42;;;;;;;1.40;1.07;;;;;;;;;;5112848;28;20365;-74
2023/04/08 02:36:09;;;;;;;3.70;1.13;;;;;;;;;;5111668;28;20096;-74
2023/04/08 02:38:35;;;;;;;2.65;1.10;;;;;;;;;;5116381;28;20020;-74
2023/04/08 02:41:01;;;;;;;6.28;2.40;;;;;;;;;;5112152;28;20034;-74
2023/04/08 02:43:34;;;;;;;1.20;1.08;;;;;;;;;;5096202;28;20045;-74
2023/04/08 02:46:03;;;;;;;4.00;1.80;;;;;;;;;;5094053;28;20023;-75
2023/04/08 02:48:29;;;;;;;;;;;;;;;;;;5112477;28;20019;-73
2023/04/08 02:50:56;;;;;;;0.82;0.82;;;;;;;;;;5112028;28;19911;-73
2023/04/08 02:53:25;;;;;;;1.95;1.40;;;;;;;;;;5111549;28;20415;-74
2023/04/08 02:55:51;;;;;;;1.65;1.15;;;;;;;;;;5111547;28;20113;-74
2023/04/08 02:58:17;;;;;;;1.40;1.02;;;;;;;;;;5093177;28;20488;-73
2023/04/08 03:00:43;;;;;;;2.03;1.35;;;;;;;;;;5115376;28;20034;-74
2023/04/08 03:03:09;;;;;;;1.23;0.90;;;;;;;;;;5092028;28;20028;-74
2023/04/08 03:05:36;;;;;;;3.58;1.00;;;;;;;;;;5109340;28;20051;-74
2023/04/08 03:08:02;;;;;;;8.20;2.55;;;;;;;;;;5116052;28;20027;-74
2023/04/08 03:10:28;;;;;;;0.90;0.90;;;;;;;;;;5117574;28;20118;-74
2023/04/08 03:12:54;;;;;;;5.32;1.08;;;;;;;;;;5111741;28;20019;-74
2023/04/08 03:15:20;;;;;;;1.67;1.38;;;;;;;;;;5113878;28;20075;-74
2023/04/08 03:17:46;;;;;;;1.42;0.98;;;;;;;;;;5112731;28;20043;-74
2023/04/08 03:20:12;;;;;;;1.55;1.13;;;;;;;;;;5112089;28;20023;-74
2023/04/08 03:22:38;;;;;;;1.02;1.02;;;;;;;;;;5114111;28;20506;-73
2023/04/08 03:25:04;;;;;;;1.20;1.10;;;;;;;;;;5093137;28;20066;-74
2023/04/08 03:27:30;;;;;;;1.08;1.08;;;;;;;;;;5111684;28;20069;-75
2023/04/08 03:29:56;;;;;;;1.95;1.30;;;;;;;;;;5092692;28;20035;-74
2023/04/08 03:32:23;;;;;;;1.83;1.15;;;;;;;;;;5111408;28;20095;-74
2023/04/08 03:34:52;;;;;;;1.83;1.67;;;;;;;;;;5092636;28;20028;-74
2023/04/08 03:37:18;;;;;;;3.08;1.98;;;;;;;;;;5111629;28;20490;-74
2023/04/08 03:39:45;;;;;;;3.50;1.17;;;;;;;;;;5111290;28;20046;-73
2023/04/08 03:42:11;;;;;;;1.60;1.50;;;;;;;;;;5111088;28;20019;-74
2023/04/08 03:44:37;;;;;;;2.40;2.05;;;;;;;;;;5111831;28;20242;-73
2023/04/08 03:47:03;;;;;;;1.58;1.48;;;;;;;;;;5112657;28;20230;-74
2023/04/08 03:49:29;;;;;;;1.98;1.52;;;;;;;;;;5115697;28;20350;-74
2023/04/08 03:51:55;;;;;;;7.68;2.03;;;;;;;;;;5113545;28;20269;-74
2023/04/08 03:54:21;;;;;;;1.85;1.15;;;;;;;;;;5110730;28;20046;-74
2023/04/08 03:56:49;;;;;;;1.85;1.50;;;;;;;;;;5110633;28;20046;-73
2023/04/08 03:59:15;;;;;;;1.35;1.25;;;;;;;;;;5109893;28;20095;-73
2023/04/08 04:01:41;;;;;;;4.60;1.75;;;;;;;;;;5110494;28;20115;-73
2023/04/08 04:04:07;;;;;;;3.10;2.08;;;;;;;;;;5110767;28;20038;-72
2023/04/08 04:06:33;;;;;;;5.40;2.13;;;;;;;;;;5111909;28;20043;-73
2023/04/08 04:08:59;;;;;;;5.20;1.67;;;;;;;;;;5113571;28;20425;-73
2023/04/08 04:11:25;;;;;;;3.38;2.20;;;;;;;;;;5113377;28;20023;-74
2023/04/08 04:13:51;;;;;;;2.25;1.73;;;;;;;;;;5113338;28;20027;-73
2023/04/08 04:16:17;;;;;;;3.50;1.88;;;;;;;;;;5094639;28;20046;-74
2023/04/08 04:18:43;;;;;;;5.38;2.75;;;;;;;;;;5112372;28;20511;-74
2023/04/08 04:21:09;;;;;;;1.40;1.15;;;;;;;;;;5095795;28;20066;-74
2023/04/08 04:23:35;;;;;;;3.17;1.77;;;;;;;;;;5110943;28;20023;-74
2023/04/08 04:26:01;;;;;;;1.45;1.35;;;;;;;;;;5110589;28;20036;-74
2023/04/08 04:28:27;;;;;;;8.88;1.92;;;;;;;;;;5109720;28;20042;-74
2023/04/08 04:30:53;;;;;;;3.08;2.78;;;;;;;;;;5111144;28;20031;-74
2023/04/08 04:33:20;;;;;;;2.13;1.45;;;;;;;;;;5110370;28;20020;-74
2023/04/08 04:35:46;;;;;;;2.10;1.55;;;;;;;;;;5110244;28;20027;-74
2023/04/08 04:38:12;;;;;;;2.65;2.35;;;;;;;;;;5110082;28;20024;-74
2023/04/08 04:40:39;;;;;;;2.08;1.70;;;;;;;;;;5110000;28;20408;-73
2023/04/08 04:43:05;;;;;;;3.95;2.38;;;;;;;;;;5109651;28;20024;-73
2023/04/08 04:45:31;;;;;;;3.80;1.90;;;;;;;;;;5091187;28;20020;-73
2023/04/08 04:47:57;;;;;;;1.73;1.50;;;;;;;;;;5091664;28;20049;-74
2023/04/08 04:50:23;;;;;;;1.85;1.55;;;;;;;;;;5109874;28;20368;-74
2023/04/08 04:52:49;;;;;;;10.15;2.35;;;;;;;;;;5109679;28;20037;-73
2023/04/08 04:55:15;;;;;;;4.80;3.05;;;;;;;;;;5109572;28;20108;-74
2023/04/08 04:57:43;;;;;;;2.65;1.70;;;;;;;;;;5109910;28;20020;-76
2023/04/08 05:00:09;;;;;;;4.68;2.13;;;;;;;;;;5091411;28;20115;-73
2023/04/08 05:02:35;;;;;;;2.60;2.40;;;;;;;;;;5091919;28;20490;-74
2023/04/08 05:05:01;;;;;;;3.47;3.13;;;;;;;;;;5110016;28;20525;-74
2023/04/08 05:07:27;;;;;;;2.17;1.67;;;;;;;;;;5091783;28;20404;-74
2023/04/08 05:09:53;;;;;;;3.75;2.13;;;;;;;;;;5110157;28;20047;-74
2023/04/08 05:12:19;;;;;;;5.28;2.97;;;;;;;;;;5096727;28;20023;-74
2023/04/08 05:14:46;;;;;;;8.00;3.20;;;;;;;;;;5114343;28;20167;-74
2023/04/08 05:17:12;;;;;;;10.18;4.15;;;;;;;;;;5114306;28;20050;-74
2023/04/08 05:19:38;;;;;;;4.35;2.90;;;;;;;;;;5114740;28;20387;-74
2023/04/08 05:22:04;;;;;;;5.10;2.95;;;;;;;;;;5114351;28;20019;-74
2023/04/08 05:24:30;;;;;;;5.10;2.70;;;;;;;;;;5095415;28;20191;-74
2023/04/08 05:26:56;;;;;;;2.90;2.63;;;;;;;;;;5113888;28;20031;-74
2023/04/08 05:29:23;;;;;;;4.10;2.28;;;;;;;;;;5113778;28;20492;-75
2023/04/08 05:31:49;;;;;;;3.03;2.13;;;;;;;;;;5097494;28;20016;-74
2023/04/08 05:34:21;;;;;;;4.57;2.60;;;;;;;;;;5117823;28;20143;-74
2023/04/08 05:36:50;;;;;;;3.35;2.22;;;;;;;;;;5095096;28;20024;-75
2023/04/08 05:39:16;;;;;;;4.72;2.13;;;;;;;;;;5095713;28;20134;-74
2023/04/08 05:41:43;;;;;;;4.65;3.15;;;;;;;;;;5114438;28;20035;-74
2023/04/08 05:44:09;;;;;;;5.97;3.88;;;;;;;;;;5117740;28;20030;-75
2023/04/08 05:46:35;;;;;;;3.55;2.63;;;;;;;;;;5113258;28;20053;-75
2023/04/08 05:49:01;;;;;;;10.25;7.20;;;;;;;;;;5113278;28;20114;-74
2023/04/08 05:51:27;;;;;;;5.75;4.38;;;;;;;;;;5095956;28;20016;-74
2023/04/08 05:53:53;;;;;;;8.40;3.67;;;;;;;;;;5112861;28;20334;-74
2023/04/08 05:56:19;;;;;;;10.07;4.38;;;;;;;;;;5112689;28;20052;-74
2023/04/08 05:58:46;;;;;;;6.85;4.80;;;;;;;;;;5112364;28;20068;-74
2023/04/08 06:01:12;;;;;;;6.25;4.97;;;;;;;;;;5112648;28;20365;-75
2023/04/08 06:03:38;;;;;;;6.57;4.80;;;;;;;;;;5112763;28;20028;-74
2023/04/08 06:06:04;;;;;;;10.98;6.40;;;;;;;;;;5094396;28;20020;-74
2023/04/08 06:08:30;;;;;;;13.90;8.32;;;;;;;;;;5112502;28;20375;-75
2023/04/08 06:10:56;;;;;;;8.23;6.38;;;;;;;;;;5107773;28;20746;-73
2023/04/08 06:13:24;;;;;;;10.75;7.18;;;;;;;;;;5093347;28;20111;-73
2023/04/08 06:15:50;;;;;;;5.35;4.22;;;;;;;;;;5091439;28;20028;-74
2023/04/08 06:18:16;;;;;;;6.72;4.88;;;;;;;;;;5093424;28;20264;-74
2023/04/08 06:20:43;;;;;;;7.75;4.65;;;;;;;;;;5100543;28;20144;-74
2023/04/08 06:23:10;;;;;;;12.25;6.25;;;;;;;;;;5076346;28;20044;-73
2023/04/08 06:25:36;;;;;;;13.02;7.15;;;;;;;;;;5093179;28;20107;-73
2023/04/08 06:28:02;;;;;;;16.48;10.60;;;;;;;;;;5071664;28;20031;-72
2023/04/08 06:30:28;;;;;;;15.13;8.80;;;;;;;;;;5094928;28;20048;-73
2023/04/08 06:32:54;;;;;;;12.25;7.55;;;;;;;;;;5091133;28;20304;-74
2023/04/08 06:35:20;;;;;;;7.80;5.57;;;;;;;;;;5091836;28;20502;-74
2023/04/08 06:37:46;;;;;;;7.32;5.20;;;;;;;;;;5090586;28;20032;-73
2023/04/08 06:40:12;;;;;;;8.27;5.63;;;;;;;;;;5076100;28;20432;-73
2023/04/08 06:42:41;;;;;;;5.65;4.82;;;;;;;;;;5092532;28;20020;-73
2023/04/08 06:45:07;;;;;;;10.25;5.05;;;;;;;;;;5080715;28;20028;-74
2023/04/08 06:47:33;;;;;;;8.63;5.25;;;;;;;;;;5094636;28;20032;-74
2023/04/08 06:49:59;;;;;;;9.85;5.40;;;;;;;;;;5076873;28;20066;-75
2023/04/08 06:52:25;;;;;;;11.73;6.68;;;;;;;;;;5087422;28;20020;-75
2023/04/08 06:54:51;;;;;;;7.38;4.90;;;;;;;;;;5106713;28;20042;-74
2023/04/08 06:57:17;;;;;;;6.43;4.55;;;;;;;;;;5088331;28;20012;-75
2023/04/08 06:59:43;;;;;;;5.32;4.15;;;;;;;;;;5111101;28;20008;-74
2023/04/08 07:02:09;;;;;;;5.22;3.75;;;;;;;;;;5106985;28;20501;-75
2023/04/08 07:04:36;;;;;;;4.45;3.22;;;;;;;;;;5108207;28;20019;-74
2023/04/08 07:07:03;;;;;;;6.30;3.78;;;;;;;;;;5103305;28;20012;-74
2023/04/08 07:09:29;;;;;;;4.53;3.80;;;;;;;;;;5090082;28;20471;-73
2023/04/08 07:11:56;;;;;;;4.80;3.72;;;;;;;;;;5086122;28;20361;-74
2023/04/08 07:14:22;;;;;;;7.43;4.40;;;;;;;;;;5099420;28;20048;-76
2023/04/08 07:16:48;;;;;;;6.55;3.75;;;;;;;;;;5081889;28;20039;-73
2023/04/08 07:19:14;;;;;;;4.85;3.83;;;;;;;;;;5098483;28;20061;-74
2023/04/08 07:21:40;;;;;;;6.60;4.57;;;;;;;;;;5103434;28;20075;-74
2023/04/08 07:24:06;;;;;;;9.05;4.25;;;;;;;;;;5113158;28;20312;-74
2023/04/08 07:26:33;;;;;;;7.82;4.68;;;;;;;;;;5121663;28;20030;-75
2023/04/08 07:28:59;;;;;;;7.40;4.25;;;;;;;;;;5118791;28;20047;-74
2023/04/08 07:31:25;;;;;;;7.20;4.50;;;;;;;;;;5111774;28;20023;-75
2023/04/08 07:33:54;;;;;;;6.85;4.20;;;;;;;;;;5081631;28;20271;-75
2023/04/08 07:36:20;;;;;;;7.03;4.32;;;;;;;;;;5095839;28;20425;-75
2023/04/08 07:38:46;;;;;;;4.50;3.90;;;;;;;;;;5096690;28;20069;-75
2023/04/08 07:41:12;;;;;;;9.38;4.45;;;;;;;;;;5099313;28;20516;-73
2023/04/08 07:43:38;;;;;;;6.00;4.32;;;;;;;;;;5101954;28;20039;-75
2023/04/08 07:46:05;;;;;;;4.90;4.05;;;;;;;;;;5083934;28;20028;-74
2023/04/08 07:48:31;;;;;;;6.80;3.88;;;;;;;;;;5099122;28;20081;-74
2023/04/08 07:50:58;;;;;;;7.80;3.95;;;;;;;;;;5099018;28;20028;-74
2023/04/08 07:53:25;;;;;;;5.75;3.47;;;;;;;;;;5097034;28;20066;-74
2023/04/08 07:55:51;;;;;;;6.07;3.70;;;;;;;;;;5089273;28;20395;-74
2023/04/08 07:58:17;;;;;;;5.32;3.60;;;;;;;;;;5072575;28;20016;-75
2023/04/08 08:00:43;;;;;;;4.10;3.08;;;;;;;;;;5092872;28;20027;-74
2023/04/08 08:03:09;;;;;;;6.25;4.00;;;;;;;;;;5093170;28;20028;-74
2023/04/08 08:05:36;;;;;;;6.60;3.90;;;;;;;;;;5099257;28;20673;-74
2023/04/08 08:08:03;;;;;;;4.25;3.58;;;;;;;;;;5084396;28;20373;-75
2023/04/08 08:10:29;;;;;;;8.32;5.15;;;;;;;;;;5101624;28;20040;-74
2023/04/08 08:12:55;;;;;;;7.38;4.40;;;;;;;;;;5083882;28;20154;-74
2023/04/08 08:15:21;;;;;;;5.43;4.05;;;;;;;;;;5104146;28;20035;-74
2023/04/08 08:17:47;;;;;;;5.50;3.45;;;;;;;;;;5101241;28;20036;-74
2023/04/08 08:20:13;;;;;;;7.15;4.85;;;;;;;;;;5101070;28;20191;-74
2023/04/08 08:22:39;;;;;;;6.47;4.38;;;;;;;;;;5100927;28;20064;-74
2023/04/08 08:25:06;;;;;;;7.63;4.18;;;;;;;;;;5101076;28;20024;-73
2023/04/08 08:27:33;;;;;;;4.43;3.50;;;;;;;;;;5100612;28;20075;-75
2023/04/08 08:29:59;;;;;;;6.13;3.75;;;;;;;;;;5100533;28;20312;-74
2023/04/08 08:32:25;;;;;;;6.45;3.75;;;;;;;;;;5100890;28;20020;-73
2023/04/08 08:34:51;;;;;;;5.70;4.03;;;;;;;;;;5100810;28;20109;-74
2023/04/08 08:37:17;;;;;;;6.53;3.78;;;;;;;;;;5082761;28;20020;-75
2023/04/08 08:39:43;;;;;;;5.00;3.63;;;;;;;;;;5100211;28;20027;-75
2023/04/08 08:42:20;;;;;;;7.50;4.18;;;;;;;;;;5080616;28;20015;-76
2023/04/08 08:44:46;;;;;;;6.03;4.18;;;;;;;;;;5099325;28;20095;-74
2023/04/08 08:47:12;;;;;;;6.57;4.38;;;;;;;;;;5100740;28;20024;-75
2023/04/08 08:49:38;;;;;;;5.35;3.78;;;;;;;;;;5099881;28;20197;-74
2023/04/08 08:52:05;;;;;;;6.95;4.47;;;;;;;;;;5099912;28;20353;-75
2023/04/08 08:54:31;;;;;;;6.38;4.15;;;;;;;;;;5081027;28;20290;-75
2023/04/08 08:56:57;;;;;;;8.02;3.83;;;;;;;;;;5100090;28;20032;-75
2023/04/08 08:59:23;;;;;;;5.70;3.67;;;;;;;;;;5100656;28;20020;-74
2023/04/08 09:01:50;;;;;;;6.45;4.10;;;;;;;;;;5100551;28;20153;-76
2023/04/08 09:04:21;;;;;;;5.75;4.60;;;;;;;;;;5100530;28;20031;-76
2023/04/08 09:06:48;;;;;;;5.07;3.88;;;;;;;;;;5100640;28;20019;-75
2023/04/08 09:09:15;;;;;;;8.73;3.60;;;;;;;;;;5100554;28;20220;-76
2023/04/08 09:11:42;;;;;;;5.22;3.42;;;;;;;;;;5100197;28;20250;-76
2023/04/08 09:14:37;;;;;;;3.78;3.10;;;;;;;;;;5100651;28;20034;-74
2023/04/08 09:17:03;;;;;;;5.10;3.88;;;;;;;;;;5061240;28;20048;-76
2023/04/08 09:19:29;;;;;;;5.43;3.90;;;;;;;;;;5100482;28;20027;-75
2023/04/08 09:22:08;;;;;;;4.95;3.80;;;;;;;;;;5100582;28;20016;-76
2023/04/08 09:24:35;;;;;;;3.78;3.38;;;;;;;;;;5100602;28;20440;-77
2023/04/08 09:27:02;;;;;;;3.15;2.85;;;;;;;;;;5097063;28;20091;-75
2023/04/08 09:29:28;;;;;;;8.05;3.88;;;;;;;;;;5081236;28;20032;-75
2023/04/08 09:32:00;;;;;;;7.03;3.45;;;;;;;;;;5083947;28;20023;-75
2023/04/08 09:34:27;;;;;;;4.13;3.42;;;;;;;;;;5097334;28;20063;-74
2023/04/08 09:36:54;;;;;;;4.82;3.17;;;;;;;;;;5108082;28;20016;-75
2023/04/08 09:39:20;;;;;;;2.90;2.50;;;;;;;;;;5087545;28;20042;-76
2023/04/08 09:41:48;;;;;;;4.38;3.70;;;;;;;;;;5111147;28;20012;-74
2023/04/08 09:44:18;;;;;;;6.15;4.57;;;;;;;;;;5111160;28;20053;-75
2023/04/08 09:46:44;;;;;;;;;;;;;;;;;;5090534;28;20042;-75
2023/04/08 09:49:12;;;;;;;5.50;3.45;;;;;;;;;;5091128;28;20176;-74
2023/04/08 09:51:59;;;;;;;4.82;3.60;;;;;;;;;;5092306;28;20023;-75
2023/04/08 09:54:31;;;;;;;4.03;3.55;;;;;;;;;;5108510;28;20217;-75
2023/04/08 09:57:03;;;;;;;8.07;3.50;;;;;;;;;;5090533;28;20020;-73
2023/04/08 09:59:32;;;;;;;5.75;3.67;;;;;;;;;;5112406;28;20094;-73
2023/04/08 10:01:58;;;;;;;;;;;;;;;;;;5096850;28;20029;-75
2023/04/08 10:04:25;;;;;;;4.70;3.30;;;;;;;;;;5108149;28;19916;-74
2023/04/08 10:06:56;;;;;;;4.07;3.17;;;;;;;;;;5110954;28;20035;-74
2023/04/08 10:09:23;;;;;;;6.70;4.60;;;;;;;;;;5095747;28;20312;-73
2023/04/08 10:11:50;;;;;;;5.63;3.30;;;;;;;;;;5086213;28;20194;-72
2023/04/08 10:14:16;;;;;;;4.20;3.50;;;;;;;;;;5102643;28;20029;-74
2023/04/08 10:16:42;;;;;;;5.05;3.60;;;;;;;;;;5086949;28;20031;-73
2023/04/08 10:19:27;;;;;;;4.70;3.80;;;;;;;;;;5086277;28;20028;-73
2023/04/08 10:21:53;;;;;;;8.07;3.80;;;;;;;;;;5102649;28;20054;-73
2023/04/08 10:24:24;;;;;;;5.03;4.00;;;;;;;;;;5099121;28;20232;-73
2023/04/08 10:26:50;;;;;;;5.07;3.45;;;;;;;;;;5078728;28;20061;-73
2023/04/08 10:29:20;;;;;;;4.70;3.58;;;;;;;;;;5098927;28;20480;-75
2023/04/08 10:31:46;;;;;;;3.35;3.00;;;;;;;;;;5080399;28;20020;-74
2023/04/08 10:34:16;;;;;;;4.13;3.63;;;;;;;;;;5095567;28;20031;-73
2023/04/08 10:36:43;;;;;;;8.55;3.65;;;;;;;;;;5080281;28;20016;-74
2023/04/08 10:39:09;;;;;;;4.85;3.08;;;;;;;;;;5099884;28;20020;-74
2023/04/08 10:41:41;;;;;;;4.38;3.58;;;;;;;;;;5081062;28;20034;-73
2023/04/08 10:44:15;;;;;;;4.47;3.35;;;;;;;;;;5097099;28;20051;-73
2023/04/08 10:46:42;;;;;;;5.57;4.07;;;;;;;;;;5078360;28;20694;-73
2023/04/08 10:49:08;;;;;;;4.15;3.30;;;;;;;;;;5079886;28;20040;-74
2023/04/08 10:51:34;;;;;;;5.80;4.00;;;;;;;;;;5082439;28;20054;-74
2023/04/08 10:54:07;;;;;;;6.18;3.88;;;;;;;;;;5083033;28;20040;-74
2023/04/08 10:56:34;;;;;;;7.05;4.45;;;;;;;;;;5098429;28;20352;-74
2023/04/08 10:59:00;;;;;;;4.05;2.95;;;;;;;;;;5101838;28;20035;-74
2023/04/08 11:01:27;;;;;;;4.32;3.92;;;;;;;;;;5102318;28;20121;-73
2023/04/08 11:03:53;;;;;;;9.98;4.43;;;;;;;;;;5102259;28;20308;-74
2023/04/08 11:06:19;;;;;;;5.95;4.28;;;;;;;;;;5075368;28;20395;-75
2023/04/08 11:08:46;;;;;;;5.57;4.28;;;;;;;;;;5071796;28;20541;-73
2023/04/08 11:11:12;;;;;;;6.30;4.25;;;;;;;;;;5099458;28;20027;-74
2023/04/08 11:13:42;;;;;;;4.75;3.40;;;;;;;;;;5083987;28;20015;-74
2023/04/08 11:16:08;;;;;;;6.22;4.30;;;;;;;;;;5081522;28;20020;-75
2023/04/08 11:18:35;;;;;;;12.45;4.05;;;;;;;;;;5101192;28;20056;-74
2023/04/08 11:21:01;;;;;;;6.30;4.38;;;;;;;;;;5101375;28;20413;-73
2023/04/08 11:23:28;;;;;;;7.15;4.45;;;;;;;;;;5083359;28;20020;-74
2023/04/08 11:25:54;;;;;;;4.35;3.45;;;;;;;;;;5076876;28;20018;-75
2023/04/08 11:28:20;;;;;;;5.35;3.83;;;;;;;;;;5098234;28;20065;-74
2023/04/08 11:30:47;;;;;;;6.40;3.47;;;;;;;;;;5084120;28;20089;-75
2023/04/08 11:33:13;;;;;;;7.00;3.78;;;;;;;;;;5102765;28;20008;-74
2023/04/08 11:35:43;;;;;;;4.03;3.58;;;;;;;;;;5078554;28;20028;-74
2023/04/08 11:38:09;;;;;;;6.85;4.05;;;;;;;;;;5110663;28;20185;-74
2023/04/08 11:40:36;;;;;;;6.88;4.05;;;;;;;;;;5112967;28;20008;-75
2023/04/08 11:43:12;;;;;;;6.13;4.40;;;;;;;;;;5092766;28;20031;-74
2023/04/08 11:45:39;;;;;;;5.70;3.38;;;;;;;;;;5114198;28;20066;-75
2023/04/08 11:48:09;;;;;;;6.80;4.32;;;;;;;;;;5105968;28;20035;-74
2023/04/08 11:50:35;;;;;;;5.75;3.58;;;;;;;;;;5092967;28;20110;-73
2023/04/08 11:53:01;;;;;;;7.57;3.92;;;;;;;;;;5107530;28;20342;-73
2023/04/08 11:55:28;;;;;;;5.05;3.50;;;;;;;;;;5084972;28;20042;-74
2023/04/08 11:57:55;;;;;;;4.75;3.92;;;;;;;;;;5087253;28;20059;-74
2023/04/08 12:00:22;;;;;;;5.82;3.55;;;;;;;;;;5106683;28;20032;-73
2023/04/08 12:02:48;;;;;;;7.30;3.92;;;;;;;;;;5077173;28;20024;-73
2023/04/08 12:05:14;;;;;;;4.15;3.58;;;;;;;;;;5108180;28;20036;-74
2023/04/08 12:07:41;;;;;;;6.30;4.38;;;;;;;;;;5106296;28;20201;-73
2023/04/08 12:10:07;;;;;;;8.02;4.68;;;;;;;;;;5085560;28;20050;-74
2023/04/08 12:12:33;;;;;;;5.93;3.78;;;;;;;;;;5083253;28;20039;-74
2023/04/08 12:15:00;;;;;;;6.72;4.93;;;;;;;;;;5089482;28;20303;-74
2023/04/08 12:17:26;;;;;;;11.75;4.25;;;;;;;;;;5085152;28;20051;-74
2023/04/08 12:19:52;;;;;;;5.45;3.80;;;;;;;;;;5087093;28;20024;-74
2023/04/08 12:22:18;;;;;;;5.07;3.70;;;;;;;;;;5095649;28;20011;-73
2023/04/08 12:24:44;;;;;;;6.43;4.53;;;;;;;;;;5096797;28;20020;-73
2023/04/08 12:27:10;;;;;;;5.90;4.18;;;;;;;;;;5081818;28;20036;-74
2023/04/08 12:29:36;;;;;;;5.80;3.45;;;;;;;;;;5109181;28;20051;-74
2023/04/08 12:32:03;;;;;;;4.40;3.10;;;;;;;;;;5087001;28;20077;-73
2023/04/08 12:34:29;;;;;;;3.67;3.00;;;;;;;;;;5081991;28;20019;-75
2023/04/08 12:36:55;;;;;;;4.57;3.83;;;;;;;;;;5103667;28;20068;-74
2023/04/08 12:39:21;;;;;;;5.03;2.83;;;;;;;;;;5110491;28;20032;-74
2023/04/08 12:41:48;;;;;;;3.03;2.60;;;;;;;;;;5107896;28;20404;-75
2023/04/08 12:44:14;;;;;;;6.78;3.08;;;;;;;;;;5102198;28;20098;-74
2023/04/08 12:46:40;;;;;;;4.68;3.05;;;;;;;;;;5099913;28;20068;-73
2023/04/08 12:49:06;;;;;;;3.90;2.72;;;;;;;;;;5083119;28;20046;-74
2023/04/08 12:51:32;;;;;;;4.28;3.25;;;;;;;;;;5108305;28;20016;-73
2023/04/08 12:53:59;;;;;;;3.90;2.78;;;;;;;;;;5111468;28;20015;-74
2023/04/08 12:56:26;;;;;;;3.15;2.85;;;;;;;;;;5110160;28;20360;-74
2023/04/08 12:58:52;;;;;;;5.75;4.07;;;;;;;;;;5085748;28;20822;-73
2023/04/08 13:01:18;;;;;;;10.50;5.18;;;;;;;;;;5104421;28;20039;-73
2023/04/08 13:03:46;;;;;;;7.28;4.22;;;;;;;;;;5104321;28;20496;-73
2023/04/08 13:06:12;;;;;;;6.97;4.13;;;;;;;;;;5082711;28;20038;-74
2023/04/08 13:08:38;;;;;;;7.13;4.22;;;;;;;;;;5083748;28;20020;-74
2023/04/08 13:11:05;;;;;;;6.70;4.05;;;;;;;;;;5089813;28;20100;-76
2023/04/08 13:13:31;;;;;;;6.15;4.20;;;;;;;;;;5101213;28;20016;-74
2023/04/08 13:15:57;;;;;;;6.00;3.85;;;;;;;;;;5106777;28;20367;-73
2023/04/08 13:18:23;;;;;;;8.90;4.70;;;;;;;;;;5112901;28;20039;-74
2023/04/08 13:20:49;;;;;;;8.88;4.85;;;;;;;;;;5105018;28;20113;-75
2023/04/08 13:23:16;;;;;;;8.18;3.95;;;;;;;;;;5086186;28;20024;-73
2023/04/08 13:25:44;;;;;;;7.97;4.20;;;;;;;;;;5086195;28;20070;-74
2023/04/08 13:28:10;;;;;;;6.55;3.97;;;;;;;;;;5102135;28;20047;-74
2023/04/08 13:30:36;;;;;;;6.43;4.70;;;;;;;;;;5101753;28;20032;-73
2023/04/08 13:33:02;;;;;;;5.32;3.97;;;;;;;;;;5091453;28;20012;-74
2023/04/08 13:35:28;;;;;;;7.57;4.38;;;;;;;;;;5091018;28;20028;-74
2023/04/08 13:37:54;;;;;;;4.82;3.53;;;;;;;;;;5089861;28;20016;-74
2023/04/08 13:40:21;;;;;;;5.85;3.47;;;;;;;;;;5109897;28;20383;-74
2023/04/08 13:42:47;;;;;;;4.18;3.40;;;;;;;;;;5084447;28;20024;-74
2023/04/08 13:45:13;;;;;;;5.93;3.53;;;;;;;;;;5113883;28;20033;-75
2023/04/08 13:47:39;;;;;;;5.93;3.42;;;;;;;;;;5095337;28;20020;-74
2023/04/08 13:50:07;;;;;;;5.57;3.42;;;;;;;;;;5087577;28;20041;-74
2023/04/08 13:52:33;;;;;;;7.35;3.05;;;;;;;;;;5102711;28;20499;-73
2023/04/08 13:54:59;;;;;;;4.18;3.10;;;;;;;;;;5101385;28;20016;-74
2023/04/08 13:57:25;;;;;;;13.90;3.78;;;;;;;;;;5087695;28;20027;-74
2023/04/08 13:59:52;;;;;;;3.58;2.67;;;;;;;;;;5101084;28;20046;-75
2023/04/08 14:02:18;;;;;;;4.43;2.95;;;;;;;;;;5097825;28;20012;-73
2023/04/08 14:04:44;;;;;;;3.60;2.30;;;;;;;;;;5096106;28;20477;-74
2023/04/08 14:07:11;;;;;;;2.90;2.25;;;;;;;;;;5099840;28;20054;-74
2023/04/08 14:09:37;;;;;;;3.17;2.55;;;;;;;;;;5106363;28;20065;-74
2023/04/08 14:12:03;;;;;;;5.05;3.15;;;;;;;;;;5106371;28;20015;-74
2023/04/08 14:14:29;;;;;;;3.58;2.83;;;;;;;;;;5089851;28;20012;-75
2023/04/08 14:16:55;;;;;;;5.30;3.53;;;;;;;;;;5092824;28;20043;-74
2023/04/08 14:19:21;;;;;;;4.70;3.17;;;;;;;;;;5094786;28;20044;-75
2023/04/08 14:21:48;;;;;;;5.32;3.85;;;;;;;;;;5104647;28;20487;-74
2023/04/08 14:24:14;;;;;;;6.18;3.92;;;;;;;;;;5105870;28;20034;-74
2023/04/08 14:26:40;;;;;;;5.63;3.80;;;;;;;;;;5095913;28;20222;-76
2023/04/08 14:29:07;;;;;;;7.00;4.20;;;;;;;;;;5097035;28;20031;-75
2023/04/08 14:31:33;;;;;;;9.48;4.38;;;;;;;;;;5109100;28;20015;-75
2023/04/08 14:33:59;;;;;;;6.55;3.97;;;;;;;;;;5095122;28;20382;-76
2023/04/08 14:36:26;;;;;;;5.88;4.13;;;;;;;;;;5109199;28;20020;-76
2023/04/08 14:38:53;;;;;;;3.53;3.22;;;;;;;;;;5092894;28;20333;-75
2023/04/08 14:41:20;;;;;;;4.15;2.80;;;;;;;;;;5101396;28;20036;-76